sensor_id;sensor_type;location;lat;lon;timestamp;temperature;humidity
19847;DHT22;10084;50.518;8.588;2022-12-29T00:02:15;10.70;94.10
19847;DHT22;10084;50.518;8.588;2022-12-29T00:04:41;10.80;94.10
19847;DHT22;10084;50.518;8.588;2022-12-29T00:07:07;10.80;94.00
19847;DHT22;10084;50.518;8.588;2022-12-29T00:09:33;10.80;94.00
19847;DHT22;10084;50.518;8.588;2022-12-29T00:12:01;10.80;94.00
19847;DHT22;10084;50.518;8.588;2022-12-29T00:14:27;10.90;94.00
19847;DHT22;10084;50.518;8.588;2022-12-29T00:17:12;10.90;94.00
19847;DHT22;10084;50.518;8.588;2022-12-29T00:19:38;11.00;94.00
19847;DHT22;10084;50.518;8.588;2022-12-29T00:22:22;11.00;94.00
19847;DHT22;10084;50.518;8.588;2022-12-29T00:25:09;11.10;93.90
19847;DHT22;10084;50.518;8.588;2022-12-29T00:27:53;11.20;93.80
19847;DHT22;10084;50.518;8.588;2022-12-29T00:30:39;11.20;93.70
19847;DHT22;10084;50.518;8.588;2022-12-29T00:33:28;11.20;93.70
19847;DHT22;10084;50.518;8.588;2022-12-29T00:39:10;11.30;93.60
19847;DHT22;10084;50.518;8.588;2022-12-29T00:41:55;11.30;93.70
19847;DHT22;10084;50.518;8.588;2022-12-29T00:44:39;11.30;93.60
19847;DHT22;10084;50.518;8.588;2022-12-29T00:47:05;11.30;93.70
19847;DHT22;10084;50.518;8.588;2022-12-29T00:49:32;11.40;93.60
19847;DHT22;10084;50.518;8.588;2022-12-29T00:52:04;11.40;93.60
19847;DHT22;10084;50.518;8.588;2022-12-29T00:54:35;11.40;93.60
19847;DHT22;10084;50.518;8.588;2022-12-29T00:57:02;11.40;93.60
19847;DHT22;10084;50.518;8.588;2022-12-29T00:59:28;11.50;93.60
19847;DHT22;10084;50.518;8.588;2022-12-29T01:01:57;11.50;93.60
19847;DHT22;10084;50.518;8.588;2022-12-29T01:04:24;11.50;93.50
19847;DHT22;10084;50.518;8.588;2022-12-29T01:06:51;11.50;93.50
19847;DHT22;10084;50.518;8.588;2022-12-29T01:09:17;11.50;93.50
19847;DHT22;10084;50.518;8.588;2022-12-29T01:12:03;11.50;93.50
19847;DHT22;10084;50.518;8.588;2022-12-29T01:14:29;11.40;93.50
19847;DHT22;10084;50.518;8.588;2022-12-29T01:16:56;11.40;93.60
19847;DHT22;10084;50.518;8.588;2022-12-29T01:19:23;11.40;93.50
19847;DHT22;10084;50.518;8.588;2022-12-29T01:21:49;11.30;93.50
19847;DHT22;10084;50.518;8.588;2022-12-29T01:24:16;11.30;93.70
19847;DHT22;10084;50.518;8.588;2022-12-29T01:26:42;11.30;93.80
19847;DHT22;10084;50.518;8.588;2022-12-29T01:29:08;11.30;93.80
19847;DHT22;10084;50.518;8.588;2022-12-29T01:31:33;11.30;93.90
19847;DHT22;10084;50.518;8.588;2022-12-29T01:33:59;11.30;93.80
19847;DHT22;10084;50.518;8.588;2022-12-29T01:36:25;11.20;93.90
19847;DHT22;10084;50.518;8.588;2022-12-29T01:38:51;11.20;93.80
19847;DHT22;10084;50.518;8.588;2022-12-29T01:41:17;11.20;93.90
19847;DHT22;10084;50.518;8.588;2022-12-29T01:43:53;11.20;94.00
19847;DHT22;10084;50.518;8.588;2022-12-29T01:46:33;11.20;94.00
19847;DHT22;10084;50.518;8.588;2022-12-29T01:51:43;11.20;94.10
19847;DHT22;10084;50.518;8.588;2022-12-29T01:54:13;11.20;94.00
19847;DHT22;10084;50.518;8.588;2022-12-29T01:56:40;11.20;94.10
19847;DHT22;10084;50.518;8.588;2022-12-29T01:59:15;11.20;94.20
19847;DHT22;10084;50.518;8.588;2022-12-29T02:01:41;11.20;94.20
19847;DHT22;10084;50.518;8.588;2022-12-29T02:04:09;11.20;94.20
19847;DHT22;10084;50.518;8.588;2022-12-29T02:06:53;11.20;94.30
19847;DHT22;10084;50.518;8.588;2022-12-29T02:09:20;11.20;94.30
19847;DHT22;10084;50.518;8.588;2022-12-29T02:11:50;11.20;94.30
19847;DHT22;10084;50.518;8.588;2022-12-29T02:14:17;11.20;94.30
19847;DHT22;10084;50.518;8.588;2022-12-29T02:31:27;11.10;94.60
19847;DHT22;10084;50.518;8.588;2022-12-29T02:34:08;11.10;94.70
19847;DHT22;10084;50.518;8.588;2022-12-29T02:37:06;11.20;94.70
19847;DHT22;10084;50.518;8.588;2022-12-29T02:42:22;11.20;94.80
19847;DHT22;10084;50.518;8.588;2022-12-29T02:45:13;11.20;94.80
19847;DHT22;10084;50.518;8.588;2022-12-29T02:47:54;11.20;94.80
19847;DHT22;10084;50.518;8.588;2022-12-29T02:50:27;11.30;94.80
19847;DHT22;10084;50.518;8.588;2022-12-29T02:53:02;11.30;94.90
19847;DHT22;10084;50.518;8.588;2022-12-29T02:55:30;11.30;94.80
19847;DHT22;10084;50.518;8.588;2022-12-29T03:00:37;11.30;94.90
19847;DHT22;10084;50.518;8.588;2022-12-29T03:03:11;11.40;94.90
19847;DHT22;10084;50.518;8.588;2022-12-29T03:05:57;11.40;94.80
19847;DHT22;10084;50.518;8.588;2022-12-29T03:11:13;11.40;94.70
19847;DHT22;10084;50.518;8.588;2022-12-29T03:14:18;11.40;94.70
19847;DHT22;10084;50.518;8.588;2022-12-29T03:17:13;11.30;94.80
19847;DHT22;10084;50.518;8.588;2022-12-29T03:19:46;11.30;94.80
19847;DHT22;10084;50.518;8.588;2022-12-29T03:22:21;11.30;94.90
19847;DHT22;10084;50.518;8.588;2022-12-29T03:25:10;11.30;95.00
19847;DHT22;10084;50.518;8.588;2022-12-29T03:27:48;11.30;95.10
19847;DHT22;10084;50.518;8.588;2022-12-29T03:30:15;11.20;95.10
19847;DHT22;10084;50.518;8.588;2022-12-29T03:32:47;11.20;95.30
19847;DHT22;10084;50.518;8.588;2022-12-29T03:35:16;11.20;95.20
19847;DHT22;10084;50.518;8.588;2022-12-29T03:37:49;11.10;95.50
19847;DHT22;10084;50.518;8.588;2022-12-29T03:40:16;11.10;95.60
19847;DHT22;10084;50.518;8.588;2022-12-29T03:42:43;11.10;95.70
19847;DHT22;10084;50.518;8.588;2022-12-29T03:45:11;11.10;95.80
19847;DHT22;10084;50.518;8.588;2022-12-29T03:47:37;11.00;95.90
19847;DHT22;10084;50.518;8.588;2022-12-29T03:50:03;10.90;96.00
19847;DHT22;10084;50.518;8.588;2022-12-29T03:52:32;10.90;96.30
19847;DHT22;10084;50.518;8.588;2022-12-29T03:54:58;10.90;96.50
19847;DHT22;10084;50.518;8.588;2022-12-29T03:57:23;10.90;96.80
19847;DHT22;10084;50.518;8.588;2022-12-29T03:59:56;10.90;96.80
19847;DHT22;10084;50.518;8.588;2022-12-29T04:02:22;10.90;96.90
19847;DHT22;10084;50.518;8.588;2022-12-29T04:04:49;10.90;97.00
19847;DHT22;10084;50.518;8.588;2022-12-29T04:07:15;10.90;97.10
19847;DHT22;10084;50.518;8.588;2022-12-29T04:09:42;11.00;97.20
19847;DHT22;10084;50.518;8.588;2022-12-29T04:12:10;11.00;97.10
19847;DHT22;10084;50.518;8.588;2022-12-29T04:14:36;11.10;97.10
19847;DHT22;10084;50.518;8.588;2022-12-29T04:17:01;11.10;97.00
19847;DHT22;10084;50.518;8.588;2022-12-29T04:19:28;11.20;96.90
19847;DHT22;10084;50.518;8.588;2022-12-29T04:21:54;11.20;96.90
19847;DHT22;10084;50.518;8.588;2022-12-29T04:24:20;11.30;97.00
19847;DHT22;10084;50.518;8.588;2022-12-29T04:26:48;11.30;96.60
19847;DHT22;10084;50.518;8.588;2022-12-29T04:29:40;11.30;96.40
19847;DHT22;10084;50.518;8.588;2022-12-29T04:32:24;11.30;96.40
19847;DHT22;10084;50.518;8.588;2022-12-29T04:34:52;11.40;96.30
19847;DHT22;10084;50.518;8.588;2022-12-29T04:37:18;11.40;96.30
19847;DHT22;10084;50.518;8.588;2022-12-29T04:39:44;11.40;96.10
19847;DHT22;10084;50.518;8.588;2022-12-29T04:42:10;11.50;96.00
19847;DHT22;10084;50.518;8.588;2022-12-29T04:44:36;11.40;96.30
19847;DHT22;10084;50.518;8.588;2022-12-29T04:47:40;11.30;96.00
19847;DHT22;10084;50.518;8.588;2022-12-29T04:50:35;11.20;96.30
19847;DHT22;10084;50.518;8.588;2022-12-29T04:53:13;11.10;96.60
19847;DHT22;10084;50.518;8.588;2022-12-29T04:55:39;11.00;97.00
19847;DHT22;10084;50.518;8.588;2022-12-29T04:58:05;11.00;97.20
19847;DHT22;10084;50.518;8.588;2022-12-29T05:00:33;11.00;97.30
19847;DHT22;10084;50.518;8.588;2022-12-29T05:03:00;11.10;97.30
19847;DHT22;10084;50.518;8.588;2022-12-29T05:05:26;11.00;97.30
19847;DHT22;10084;50.518;8.588;2022-12-29T05:07:52;11.00;97.50
19847;DHT22;10084;50.518;8.588;2022-12-29T05:10:18;10.90;97.60
19847;DHT22;10084;50.518;8.588;2022-12-29T05:12:44;10.80;97.70
19847;DHT22;10084;50.518;8.588;2022-12-29T05:15:11;10.80;98.10
19847;DHT22;10084;50.518;8.588;2022-12-29T05:17:37;10.70;98.50
19847;DHT22;10084;50.518;8.588;2022-12-29T05:20:05;10.70;98.80
19847;DHT22;10084;50.518;8.588;2022-12-29T05:22:32;10.60;99.10
19847;DHT22;10084;50.518;8.588;2022-12-29T05:24:58;10.60;99.40
19847;DHT22;10084;50.518;8.588;2022-12-29T05:27:24;10.60;99.60
19847;DHT22;10084;50.518;8.588;2022-12-29T05:30:09;10.60;99.80
19847;DHT22;10084;50.518;8.588;2022-12-29T05:32:34;10.70;99.90
19847;DHT22;10084;50.518;8.588;2022-12-29T05:35:00;10.70;99.90
19847;DHT22;10084;50.518;8.588;2022-12-29T05:37:26;10.70;99.90
19847;DHT22;10084;50.518;8.588;2022-12-29T05:39:52;10.70;99.90
19847;DHT22;10084;50.518;8.588;2022-12-29T05:42:17;10.70;99.90
19847;DHT22;10084;50.518;8.588;2022-12-29T05:44:49;10.70;99.90
19847;DHT22;10084;50.518;8.588;2022-12-29T05:47:43;10.70;99.90
19847;DHT22;10084;50.518;8.588;2022-12-29T05:50:24;10.70;99.90
19847;DHT22;10084;50.518;8.588;2022-12-29T05:53:11;10.70;99.90
19847;DHT22;10084;50.518;8.588;2022-12-29T05:55:37;10.70;99.90
19847;DHT22;10084;50.518;8.588;2022-12-29T05:58:03;10.80;99.90
19847;DHT22;10084;50.518;8.588;2022-12-29T06:00:29;10.80;99.90
19847;DHT22;10084;50.518;8.588;2022-12-29T06:02:55;10.90;99.90
19847;DHT22;10084;50.518;8.588;2022-12-29T06:05:21;11.00;99.90
19847;DHT22;10084;50.518;8.588;2022-12-29T06:07:47;11.00;99.90
19847;DHT22;10084;50.518;8.588;2022-12-29T06:10:15;11.00;99.90
19847;DHT22;10084;50.518;8.588;2022-12-29T06:12:54;11.10;99.70
19847;DHT22;10084;50.518;8.588;2022-12-29T06:15:20;11.10;99.40
19847;DHT22;10084;50.518;8.588;2022-12-29T06:17:48;11.10;99.20
19847;DHT22;10084;50.518;8.588;2022-12-29T06:20:14;11.20;99.10
19847;DHT22;10084;50.518;8.588;2022-12-29T06:22:40;11.20;98.90
19847;DHT22;10084;50.518;8.588;2022-12-29T06:25:06;11.20;98.70
19847;DHT22;10084;50.518;8.588;2022-12-29T06:27:34;11.30;98.60
19847;DHT22;10084;50.518;8.588;2022-12-29T06:29:59;11.30;98.40
19847;DHT22;10084;50.518;8.588;2022-12-29T06:32:25;11.30;98.40
19847;DHT22;10084;50.518;8.588;2022-12-29T06:34:53;11.40;98.30
19847;DHT22;10084;50.518;8.588;2022-12-29T06:37:19;11.40;98.10
19847;DHT22;10084;50.518;8.588;2022-12-29T06:39:45;11.40;98.30
19847;DHT22;10084;50.518;8.588;2022-12-29T06:42:13;11.40;97.80
19847;DHT22;10084;50.518;8.588;2022-12-29T06:45:08;11.40;97.70
19847;DHT22;10084;50.518;8.588;2022-12-29T06:47:34;11.50;97.60
19847;DHT22;10084;50.518;8.588;2022-12-29T06:50:00;11.50;97.60
19847;DHT22;10084;50.518;8.588;2022-12-29T06:52:26;11.40;97.50
19847;DHT22;10084;50.518;8.588;2022-12-29T06:54:54;11.40;97.40
19847;DHT22;10084;50.518;8.588;2022-12-29T06:57:20;11.50;97.40
19847;DHT22;10084;50.518;8.588;2022-12-29T06:59:46;11.50;97.40
19847;DHT22;10084;50.518;8.588;2022-12-29T07:02:12;11.40;97.30
19847;DHT22;10084;50.518;8.588;2022-12-29T07:04:40;11.40;97.10
19847;DHT22;10084;50.518;8.588;2022-12-29T07:07:05;11.30;97.20
19847;DHT22;10084;50.518;8.588;2022-12-29T07:09:31;11.20;97.40
19847;DHT22;10084;50.518;8.588;2022-12-29T07:11:57;11.10;97.80
19847;DHT22;10084;50.518;8.588;2022-12-29T07:14:23;11.00;97.90
19847;DHT22;10084;50.518;8.588;2022-12-29T07:16:48;11.00;98.50
19847;DHT22;10084;50.518;8.588;2022-12-29T07:19:14;11.00;98.50
19847;DHT22;10084;50.518;8.588;2022-12-29T07:21:39;11.00;98.80
19847;DHT22;10084;50.518;8.588;2022-12-29T07:24:09;11.00;98.90
19847;DHT22;10084;50.518;8.588;2022-12-29T07:26:34;11.10;98.90
19847;DHT22;10084;50.518;8.588;2022-12-29T07:29:05;11.10;98.80
19847;DHT22;10084;50.518;8.588;2022-12-29T07:31:31;11.10;98.80
19847;DHT22;10084;50.518;8.588;2022-12-29T07:33:56;11.20;98.70
19847;DHT22;10084;50.518;8.588;2022-12-29T07:36:22;11.20;98.60
19847;DHT22;10084;50.518;8.588;2022-12-29T07:38:47;11.20;98.50
19847;DHT22;10084;50.518;8.588;2022-12-29T07:41:13;11.30;98.40
19847;DHT22;10084;50.518;8.588;2022-12-29T07:43:39;11.30;98.30
19847;DHT22;10084;50.518;8.588;2022-12-29T07:46:21;11.30;98.20
19847;DHT22;10084;50.518;8.588;2022-12-29T07:48:47;11.30;98.10
19847;DHT22;10084;50.518;8.588;2022-12-29T07:51:13;11.40;98.10
19847;DHT22;10084;50.518;8.588;2022-12-29T07:53:38;11.40;97.90
19847;DHT22;10084;50.518;8.588;2022-12-29T07:56:04;11.40;97.80
19847;DHT22;10084;50.518;8.588;2022-12-29T07:58:30;11.50;97.70
19847;DHT22;10084;50.518;8.588;2022-12-29T08:00:56;11.50;97.60
19847;DHT22;10084;50.518;8.588;2022-12-29T08:03:22;11.50;97.50
19847;DHT22;10084;50.518;8.588;2022-12-29T08:05:49;11.50;97.30
19847;DHT22;10084;50.518;8.588;2022-12-29T08:08:15;11.60;97.20
19847;DHT22;10084;50.518;8.588;2022-12-29T08:10:40;11.60;97.00
19847;DHT22;10084;50.518;8.588;2022-12-29T08:13:06;11.60;96.90
19847;DHT22;10084;50.518;8.588;2022-12-29T08:15:32;11.70;96.80
19847;DHT22;10084;50.518;8.588;2022-12-29T08:17:57;11.60;96.70
19847;DHT22;10084;50.518;8.588;2022-12-29T08:20:23;11.70;96.70
19847;DHT22;10084;50.518;8.588;2022-12-29T08:22:50;11.70;96.60
19847;DHT22;10084;50.518;8.588;2022-12-29T08:25:15;11.70;96.70
19847;DHT22;10084;50.518;8.588;2022-12-29T08:27:41;11.80;96.60
19847;DHT22;10084;50.518;8.588;2022-12-29T08:30:08;11.80;96.60
19847;DHT22;10084;50.518;8.588;2022-12-29T08:32:34;11.90;96.50
19847;DHT22;10084;50.518;8.588;2022-12-29T08:34:59;11.90;96.40
19847;DHT22;10084;50.518;8.588;2022-12-29T08:37:26;11.90;96.60
19847;DHT22;10084;50.518;8.588;2022-12-29T08:39:52;11.80;96.70
19847;DHT22;10084;50.518;8.588;2022-12-29T08:42:17;11.70;96.90
19847;DHT22;10084;50.518;8.588;2022-12-29T08:44:43;11.70;97.10
19847;DHT22;10084;50.518;8.588;2022-12-29T08:47:10;11.60;97.30
19847;DHT22;10084;50.518;8.588;2022-12-29T08:49:36;11.60;97.40
19847;DHT22;10084;50.518;8.588;2022-12-29T08:52:02;11.60;97.70
19847;DHT22;10084;50.518;8.588;2022-12-29T08:54:28;11.60;97.70
19847;DHT22;10084;50.518;8.588;2022-12-29T08:56:54;11.50;97.70
19847;DHT22;10084;50.518;8.588;2022-12-29T08:59:22;11.50;97.80
19847;DHT22;10084;50.518;8.588;2022-12-29T09:01:48;11.50;97.80
19847;DHT22;10084;50.518;8.588;2022-12-29T09:04:14;11.50;97.80
19847;DHT22;10084;50.518;8.588;2022-12-29T09:06:39;11.40;97.80
19847;DHT22;10084;50.518;8.588;2022-12-29T09:09:05;11.40;98.00
19847;DHT22;10084;50.518;8.588;2022-12-29T09:11:31;11.40;98.10
19847;DHT22;10084;50.518;8.588;2022-12-29T09:13:56;11.40;98.20
19847;DHT22;10084;50.518;8.588;2022-12-29T09:16:23;11.50;98.20
19847;DHT22;10084;50.518;8.588;2022-12-29T09:18:50;11.60;98.70
19847;DHT22;10084;50.518;8.588;2022-12-29T09:21:16;11.80;98.30
19847;DHT22;10084;50.518;8.588;2022-12-29T09:23:41;11.90;98.20
19847;DHT22;10084;50.518;8.588;2022-12-29T09:26:07;12.00;98.20
19847;DHT22;10084;50.518;8.588;2022-12-29T09:28:33;12.10;98.20
19847;DHT22;10084;50.518;8.588;2022-12-29T09:31:00;12.20;98.10
19847;DHT22;10084;50.518;8.588;2022-12-29T09:33:26;12.30;97.90
19847;DHT22;10084;50.518;8.588;2022-12-29T09:35:54;12.30;97.60
19847;DHT22;10084;50.518;8.588;2022-12-29T09:38:20;12.20;97.40
19847;DHT22;10084;50.518;8.588;2022-12-29T09:40:57;12.20;97.50
19847;DHT22;10084;50.518;8.588;2022-12-29T09:43:43;12.10;97.60
19847;DHT22;10084;50.518;8.588;2022-12-29T09:46:28;12.00;97.60
19847;DHT22;10084;50.518;8.588;2022-12-29T09:51:53;12.00;98.00
19847;DHT22;10084;50.518;8.588;2022-12-29T09:54:32;11.90;97.80
19847;DHT22;10084;50.518;8.588;2022-12-29T09:57:01;11.90;97.90
19847;DHT22;10084;50.518;8.588;2022-12-29T09:59:40;11.90;98.10
19847;DHT22;10084;50.518;8.588;2022-12-29T10:02:16;11.90;98.10
19847;DHT22;10084;50.518;8.588;2022-12-29T10:04:42;11.90;98.20
19847;DHT22;10084;50.518;8.588;2022-12-29T10:07:25;12.00;98.40
19847;DHT22;10084;50.518;8.588;2022-12-29T10:15:34;12.00;98.30
19847;DHT22;10084;50.518;8.588;2022-12-29T10:20:55;12.10;98.30
19847;DHT22;10084;50.518;8.588;2022-12-29T10:25:58;12.10;98.30
19847;DHT22;10084;50.518;8.588;2022-12-29T10:28:43;12.10;98.30
19847;DHT22;10084;50.518;8.588;2022-12-29T10:31:22;12.20;98.50
19847;DHT22;10084;50.518;8.588;2022-12-29T10:33:57;12.30;98.40
19847;DHT22;10084;50.518;8.588;2022-12-29T10:36:38;12.40;99.90
19847;DHT22;10084;50.518;8.588;2022-12-29T10:41:39;13.40;99.90
19847;DHT22;10084;50.518;8.588;2022-12-29T10:44:09;13.70;99.90
19847;DHT22;10084;50.518;8.588;2022-12-29T10:46:38;13.70;99.90
19847;DHT22;10084;50.518;8.588;2022-12-29T10:49:08;13.70;99.60
19847;DHT22;10084;50.518;8.588;2022-12-29T10:51:41;13.60;99.60
19847;DHT22;10084;50.518;8.588;2022-12-29T10:54:14;13.60;99.60
19847;DHT22;10084;50.518;8.588;2022-12-29T10:56:50;13.60;99.90
19847;DHT22;10084;50.518;8.588;2022-12-29T10:59:22;13.70;99.90
19847;DHT22;10084;50.518;8.588;2022-12-29T11:07:18;13.50;98.80
19847;DHT22;10084;50.518;8.588;2022-12-29T11:09:45;13.40;99.80
19847;DHT22;10084;50.518;8.588;2022-12-29T11:12:24;13.30;99.80
19847;DHT22;10084;50.518;8.588;2022-12-29T11:17:57;13.00;99.70
19847;DHT22;10084;50.518;8.588;2022-12-29T11:20:35;12.90;99.60
19847;DHT22;10084;50.518;8.588;2022-12-29T11:23:04;12.70;99.60
19847;DHT22;10084;50.518;8.588;2022-12-29T11:25:30;12.60;99.70
19847;DHT22;10084;50.518;8.588;2022-12-29T11:28:02;12.50;99.50
19847;DHT22;10084;50.518;8.588;2022-12-29T11:30:31;12.40;99.60
19847;DHT22;10084;50.518;8.588;2022-12-29T11:32:58;12.30;99.80
19847;DHT22;10084;50.518;8.588;2022-12-29T11:38:00;12.20;99.90
19847;DHT22;10084;50.518;8.588;2022-12-29T11:40:27;12.30;99.90
19847;DHT22;10084;50.518;8.588;2022-12-29T11:42:59;12.30;99.90
19847;DHT22;10084;50.518;8.588;2022-12-29T11:45:31;12.30;99.90
19847;DHT22;10084;50.518;8.588;2022-12-29T11:50:34;12.40;99.90
19847;DHT22;10084;50.518;8.588;2022-12-29T11:53:25;12.40;99.90
19847;DHT22;10084;50.518;8.588;2022-12-29T11:55:59;12.40;99.90
19847;DHT22;10084;50.518;8.588;2022-12-29T11:58:36;12.50;99.90
19847;DHT22;10084;50.518;8.588;2022-12-29T12:01:25;12.50;99.90
19847;DHT22;10084;50.518;8.588;2022-12-29T12:04:04;12.50;99.90
19847;DHT22;10084;50.518;8.588;2022-12-29T12:06:34;12.60;99.90
19847;DHT22;10084;50.518;8.588;2022-12-29T12:09:10;12.60;99.90
19847;DHT22;10084;50.518;8.588;2022-12-29T12:11:40;12.60;99.90
19847;DHT22;10084;50.518;8.588;2022-12-29T12:14:22;12.60;99.90
19847;DHT22;10084;50.518;8.588;2022-12-29T12:17:19;12.70;99.90
19847;DHT22;10084;50.518;8.588;2022-12-29T12:20:16;12.70;99.80
19847;DHT22;10084;50.518;8.588;2022-12-29T12:25:52;12.90;99.60
19847;DHT22;10084;50.518;8.588;2022-12-29T12:28:59;12.90;99.70
19847;DHT22;10084;50.518;8.588;2022-12-29T12:34:13;12.90;99.10
19847;DHT22;10084;50.518;8.588;2022-12-29T12:42:24;13.00;98.90
19847;DHT22;10084;50.518;8.588;2022-12-29T16:35:26;9.60;99.90
19847;DHT22;10084;50.518;8.588;2022-12-29T16:38:15;9.80;96.20
19847;DHT22;10084;50.518;8.588;2022-12-29T16:40:58;9.70;96.30
19847;DHT22;10084;50.518;8.588;2022-12-29T16:48:36;9.60;96.30
19847;DHT22;10084;50.518;8.588;2022-12-29T16:51:17;9.60;96.40
19847;DHT22;10084;50.518;8.588;2022-12-29T16:53:52;9.60;96.30
19847;DHT22;10084;50.518;8.588;2022-12-29T16:56:23;9.60;96.30
19847;DHT22;10084;50.518;8.588;2022-12-29T17:01:27;9.60;96.30
19847;DHT22;10084;50.518;8.588;2022-12-29T17:03:58;9.50;96.30
19847;DHT22;10084;50.518;8.588;2022-12-29T17:06:25;9.50;96.30
19847;DHT22;10084;50.518;8.588;2022-12-29T17:08:51;9.50;96.30
19847;DHT22;10084;50.518;8.588;2022-12-29T17:11:24;9.50;96.60
19847;DHT22;10084;50.518;8.588;2022-12-29T17:14:36;9.50;96.30
19847;DHT22;10084;50.518;8.588;2022-12-29T17:17:10;9.40;96.30
19847;DHT22;10084;50.518;8.588;2022-12-29T17:19:37;9.50;96.30
19847;DHT22;10084;50.518;8.588;2022-12-29T17:22:09;9.50;96.30
19847;DHT22;10084;50.518;8.588;2022-12-29T17:24:37;9.50;96.30
19847;DHT22;10084;50.518;8.588;2022-12-29T17:27:03;9.40;96.20
19847;DHT22;10084;50.518;8.588;2022-12-29T17:29:32;9.40;96.20
19847;DHT22;10084;50.518;8.588;2022-12-29T17:32:00;9.40;96.30
19847;DHT22;10084;50.518;8.588;2022-12-29T17:34:27;9.40;96.20
19847;DHT22;10084;50.518;8.588;2022-12-29T17:36:52;9.40;96.20
19847;DHT22;10084;50.518;8.588;2022-12-29T17:39:18;9.40;96.20
19847;DHT22;10084;50.518;8.588;2022-12-29T17:41:44;9.40;96.20
19847;DHT22;10084;50.518;8.588;2022-12-29T17:44:15;9.40;96.20
19847;DHT22;10084;50.518;8.588;2022-12-29T17:46:42;9.30;96.20
19847;DHT22;10084;50.518;8.588;2022-12-29T17:49:13;9.30;96.20
19847;DHT22;10084;50.518;8.588;2022-12-29T17:51:41;9.30;96.20
19847;DHT22;10084;50.518;8.588;2022-12-29T17:54:17;9.20;96.10
19847;DHT22;10084;50.518;8.588;2022-12-29T17:56:44;9.20;96.20
19847;DHT22;10084;50.518;8.588;2022-12-29T17:59:13;9.20;96.50
19847;DHT22;10084;50.518;8.588;2022-12-29T18:01:42;9.10;96.20
19847;DHT22;10084;50.518;8.588;2022-12-29T18:04:26;9.10;96.20
19847;DHT22;10084;50.518;8.588;2022-12-29T18:06:52;9.00;96.30
19847;DHT22;10084;50.518;8.588;2022-12-29T18:09:18;9.00;96.30
19847;DHT22;10084;50.518;8.588;2022-12-29T18:11:45;8.90;96.30
19847;DHT22;10084;50.518;8.588;2022-12-29T18:14:16;8.80;96.30
19847;DHT22;10084;50.518;8.588;2022-12-29T18:16:42;8.80;96.30
19847;DHT22;10084;50.518;8.588;2022-12-29T18:19:08;8.70;96.40
19847;DHT22;10084;50.518;8.588;2022-12-29T18:21:35;8.70;96.40
19847;DHT22;10084;50.518;8.588;2022-12-29T18:24:02;8.60;96.40
19847;DHT22;10084;50.518;8.588;2022-12-29T18:26:29;8.60;96.40
19847;DHT22;10084;50.518;8.588;2022-12-29T18:29:00;8.60;96.50
19847;DHT22;10084;50.518;8.588;2022-12-29T18:31:31;8.50;96.50
19847;DHT22;10084;50.518;8.588;2022-12-29T18:33:59;8.50;96.60
19847;DHT22;10084;50.518;8.588;2022-12-29T18:36:27;8.40;96.70
19847;DHT22;10084;50.518;8.588;2022-12-29T18:38:53;8.40;96.60
19847;DHT22;10084;50.518;8.588;2022-12-29T18:41:25;8.30;96.60
19847;DHT22;10084;50.518;8.588;2022-12-29T18:43:51;8.30;96.60
19847;DHT22;10084;50.518;8.588;2022-12-29T18:46:17;8.30;96.70
19847;DHT22;10084;50.518;8.588;2022-12-29T18:48:42;8.30;96.70
19847;DHT22;10084;50.518;8.588;2022-12-29T18:51:19;8.20;96.70
19847;DHT22;10084;50.518;8.588;2022-12-29T18:53:46;8.20;96.70
19847;DHT22;10084;50.518;8.588;2022-12-29T18:56:12;8.10;96.70
19847;DHT22;10084;50.518;8.588;2022-12-29T18:58:38;8.10;96.70
19847;DHT22;10084;50.518;8.588;2022-12-29T19:01:05;8.10;96.70
19847;DHT22;10084;50.518;8.588;2022-12-29T19:03:31;8.10;96.70
19847;DHT22;10084;50.518;8.588;2022-12-29T19:05:57;8.10;96.80
19847;DHT22;10084;50.518;8.588;2022-12-29T19:08:24;8.20;96.80
19847;DHT22;10084;50.518;8.588;2022-12-29T19:10:51;8.20;96.80
19847;DHT22;10084;50.518;8.588;2022-12-29T19:13:19;8.20;96.80
19847;DHT22;10084;50.518;8.588;2022-12-29T19:15:45;8.30;96.80
19847;DHT22;10084;50.518;8.588;2022-12-29T19:18:16;8.30;96.70
19847;DHT22;10084;50.518;8.588;2022-12-29T19:20:43;8.30;96.70
19847;DHT22;10084;50.518;8.588;2022-12-29T19:23:12;8.40;96.60
19847;DHT22;10084;50.518;8.588;2022-12-29T19:25:38;8.50;96.60
19847;DHT22;10084;50.518;8.588;2022-12-29T19:28:06;8.50;96.60
19847;DHT22;10084;50.518;8.588;2022-12-29T19:30:32;8.60;96.60
19847;DHT22;10084;50.518;8.588;2022-12-29T19:32:58;8.60;96.50
19847;DHT22;10084;50.518;8.588;2022-12-29T19:35:26;8.60;96.50
19847;DHT22;10084;50.518;8.588;2022-12-29T19:37:52;8.70;96.50
19847;DHT22;10084;50.518;8.588;2022-12-29T19:40:20;8.70;96.40
19847;DHT22;10084;50.518;8.588;2022-12-29T19:42:47;8.70;96.40
19847;DHT22;10084;50.518;8.588;2022-12-29T19:45:14;8.70;96.40
19847;DHT22;10084;50.518;8.588;2022-12-29T19:47:40;8.80;96.40
19847;DHT22;10084;50.518;8.588;2022-12-29T19:50:08;8.70;96.40
19847;DHT22;10084;50.518;8.588;2022-12-29T19:52:35;8.70;96.40
19847;DHT22;10084;50.518;8.588;2022-12-29T19:55:01;8.80;96.50
19847;DHT22;10084;50.518;8.588;2022-12-29T19:57:28;8.80;96.50
19847;DHT22;10084;50.518;8.588;2022-12-29T19:59:54;8.80;96.40
19847;DHT22;10084;50.518;8.588;2022-12-29T20:02:24;8.80;96.40
19847;DHT22;10084;50.518;8.588;2022-12-29T20:04:50;8.80;96.40
19847;DHT22;10084;50.518;8.588;2022-12-29T20:07:16;8.80;96.30
19847;DHT22;10084;50.518;8.588;2022-12-29T20:09:42;8.80;96.40
19847;DHT22;10084;50.518;8.588;2022-12-29T20:12:08;8.70;96.40
19847;DHT22;10084;50.518;8.588;2022-12-29T20:14:38;8.70;96.40
19847;DHT22;10084;50.518;8.588;2022-12-29T20:17:05;8.70;96.40
19847;DHT22;10084;50.518;8.588;2022-12-29T20:19:33;8.70;96.40
19847;DHT22;10084;50.518;8.588;2022-12-29T20:22:00;8.80;96.40
19847;DHT22;10084;50.518;8.588;2022-12-29T20:24:27;8.80;96.50
19847;DHT22;10084;50.518;8.588;2022-12-29T20:26:53;8.80;96.40
19847;DHT22;10084;50.518;8.588;2022-12-29T20:29:19;8.80;96.40
19847;DHT22;10084;50.518;8.588;2022-12-29T20:31:46;8.70;96.40
19847;DHT22;10084;50.518;8.588;2022-12-29T20:34:12;8.80;96.40
19847;DHT22;10084;50.518;8.588;2022-12-29T20:36:41;8.70;96.40
19847;DHT22;10084;50.518;8.588;2022-12-29T20:39:10;8.70;96.40
19847;DHT22;10084;50.518;8.588;2022-12-29T20:41:36;8.70;96.40
19847;DHT22;10084;50.518;8.588;2022-12-29T20:44:02;8.60;96.50
19847;DHT22;10084;50.518;8.588;2022-12-29T20:46:30;8.60;96.50
19847;DHT22;10084;50.518;8.588;2022-12-29T20:48:57;8.60;96.50
19847;DHT22;10084;50.518;8.588;2022-12-29T20:51:23;8.60;96.50
19847;DHT22;10084;50.518;8.588;2022-12-29T20:53:50;8.50;96.60
19847;DHT22;10084;50.518;8.588;2022-12-29T20:56:19;8.50;96.60
19847;DHT22;10084;50.518;8.588;2022-12-29T20:58:45;8.40;96.60
19847;DHT22;10084;50.518;8.588;2022-12-29T21:01:13;8.40;96.60
19847;DHT22;10084;50.518;8.588;2022-12-29T21:03:39;8.40;96.60